Time;durP1;ratioP1;P1;durP2;ratioP2;P2;SDS_P1;SDS_P2;PMS_P1;PMS_P2;Temp;Humidity;BMP_temperature;BMP_pressure;BME280_temperature;BME280_humidity;BME280_pressure;Samples;Min_cycle;Max_cycle;Signal;HPM_P1;HPM_P2
2022/01/24 00:00:36;;;;;;;;;;;19.90;42.70;;;;;;5097169;28;19923;-46
2022/01/24 00:03:03;;;;;;;;;;;19.90;42.70;;;;;;5096648;28;19927;-44
2022/01/24 00:05:30;;;;;;;;;;;19.90;42.70;;;;;;5086861;28;19923;-49
2022/01/24 00:07:56;;;;;;;;;;;19.90;42.60;;;;;;5110573;28;19989;-46
2022/01/24 00:10:26;;;;;;;;;;;19.90;42.70;;;;;;5101718;28;20010;-44
2022/01/24 00:13:13;;;;;;;;;;;19.90;42.70;;;;;;5098872;28;19928;-43
2022/01/24 00:15:57;;;;;;;;;;;19.90;42.70;;;;;;5103759;28;19923;-45
2022/01/24 00:18:31;;;;;;;;;;;19.90;42.70;;;;;;5097513;28;19934;-46
2022/01/24 00:26:46;;;;;;;;;;;19.90;42.70;;;;;;5095758;28;19967;-48
2022/01/24 00:29:14;;;;;;;;;;;19.90;42.70;;;;;;5099165;28;19927;-45
2022/01/24 00:31:41;;;;;;;;;;;19.90;42.70;;;;;;5091569;28;19928;-45
2022/01/24 00:34:08;;;;;;;;;;;19.90;42.70;;;;;;5080143;28;19928;-46
2022/01/24 00:36:35;;;;;;;;;;;19.90;42.70;;;;;;5093766;28;20401;-43
2022/01/24 00:39:02;;;;;;;;;;;19.90;42.70;;;;;;5114199;28;19935;-46
2022/01/24 00:41:30;;;;;;;;;;;19.90;42.70;;;;;;5099126;28;19931;-45
2022/01/24 00:44:18;;;;;;;;;;;19.90;42.70;;;;;;5094954;28;20726;-45
2022/01/24 00:46:52;;;;;;;;;;;19.90;42.70;;;;;;5102906;28;20282;-48
2022/01/24 00:49:37;;;;;;;;;;;19.90;42.70;;;;;;5098629;28;19923;-43
2022/01/24 00:54:52;;;;;;;;;;;19.90;42.70;;;;;;5115860;27;19931;-45
2022/01/24 00:57:19;;;;;;;;;;;19.90;42.70;;;;;;5090375;28;19967;-45
2022/01/24 00:59:46;;;;;;;;;;;19.90;42.70;;;;;;5096345;28;19928;-44
2022/01/24 01:02:14;;;;;;;;;;;19.90;42.70;;;;;;5099513;28;19924;-47
2022/01/24 01:04:54;;;;;;;;;;;19.90;42.70;;;;;;5114501;28;19923;-46
2022/01/24 01:07:30;;;;;;;;;;;19.90;42.70;;;;;;5096759;28;19927;-46
2022/01/24 01:18:21;;;;;;;;;;;19.90;42.70;;;;;;5095361;28;19923;-46
2022/01/24 01:23:33;;;;;;;;;;;19.90;42.70;;;;;;5087371;28;19924;-45
2022/01/24 01:26:03;;;;;;;;;;;19.90;42.70;;;;;;5096813;28;19932;-46
2022/01/24 01:28:30;;;;;;;;;;;19.90;42.70;;;;;;5111753;28;20360;-44
2022/01/24 01:31:02;;;;;;;;;;;19.90;42.70;;;;;;5109438;28;19946;-49
2022/01/24 01:33:39;;;;;;;;;;;19.90;42.70;;;;;;5077384;28;19951;-46
2022/01/24 01:36:12;;;;;;;;;;;19.90;42.70;;;;;;5104961;28;19934;-44
2022/01/24 01:39:05;;;;;;;;;;;19.90;42.70;;;;;;5115095;28;19932;-49
2022/01/24 01:52:45;;;;;;;;;;;19.90;42.70;;;;;;5109478;28;19928;-47
2022/01/24 01:55:24;;;;;;;;;;;19.90;42.70;;;;;;5098239;28;20483;-45
2022/01/24 01:57:51;;;;;;;;;;;19.90;42.70;;;;;;5082324;28;19920;-46
2022/01/24 02:00:18;;;;;;;;;;;19.90;42.70;;;;;;5079290;28;19924;-44
2022/01/24 02:02:46;;;;;;;;;;;19.90;42.70;;;;;;5094504;28;19923;-47
2022/01/24 02:05:15;;;;;;;;;;;19.90;42.70;;;;;;5095583;28;19924;-46
2022/01/24 02:07:45;;;;;;;;;;;19.90;42.70;;;;;;5104872;28;19931;-46
2022/01/24 02:10:12;;;;;;;;;;;19.90;43.30;;;;;;5111174;28;20399;-43
2022/01/24 02:12:39;;;;;;;;;;;19.90;42.70;;;;;;5108106;28;19946;-47
2022/01/24 02:15:06;;;;;;;;;;;19.90;42.70;;;;;;5104710;28;20277;-43
2022/01/24 02:17:44;;;;;;;;;;;19.90;42.70;;;;;;5109075;28;19934;-46
2022/01/24 02:20:27;;;;;;;;;;;19.90;42.70;;;;;;5116977;28;19973;-45
2022/01/24 02:23:17;;;;;;;;;;;19.90;42.70;;;;;;5097316;28;19930;-43
2022/01/24 02:25:44;;;;;;;;;;;19.90;42.70;;;;;;5099379;28;19924;-43
2022/01/24 02:28:13;;;;;;;;;;;19.90;42.70;;;;;;5112672;28;19923;-43
2022/01/24 02:31:04;;;;;;;;;;;19.90;42.70;;;;;;5098465;28;19923;-43
2022/01/24 02:33:31;;;;;;;;;;;19.90;42.70;;;;;;5110097;28;19969;-47
2022/01/24 02:35:58;;;;;;;;;;;19.90;42.70;;;;;;5119916;27;19996;-43
2022/01/24 02:38:38;;;;;;;;;;;19.90;42.70;;;;;;5117473;28;19987;-47
2022/01/24 02:49:21;;;;;;;;;;;19.90;42.60;;;;;;5117581;28;19919;-46
2022/01/24 02:51:48;;;;;;;;;;;19.90;42.60;;;;;;5090829;28;20309;-43
2022/01/24 02:54:22;;;;;;;;;;;19.90;42.60;;;;;;5116315;28;19927;-43
2022/01/24 02:56:49;;;;;;;;;;;19.90;42.60;;;;;;5097984;28;19932;-46
2022/01/24 02:59:16;;;;;;;;;;;19.90;42.60;;;;;;5128274;27;19931;-44
2022/01/24 03:01:43;;;;;;;;;;;19.90;42.70;;;;;;5090779;28;19927;-44
2022/01/24 03:04:09;;;;;;;;;;;19.90;42.60;;;;;;5115078;28;19924;-45
2022/01/24 03:06:36;;;;;;;;;;;19.90;42.60;;;;;;5103457;28;19923;-43
2022/01/24 03:09:03;;;;;;;;;;;19.90;42.70;;;;;;5087172;28;20012;-43
2022/01/24 03:11:53;;;;;;;;;;;19.90;42.60;;;;;;5087883;28;20365;-44
2022/01/24 03:14:19;;;;;;;;;;;19.90;42.60;;;;;;5112403;28;20789;-46
2022/01/24 03:16:46;;;;;;;;;;;19.90;42.60;;;;;;5099374;28;19993;-45
2022/01/24 03:19:13;;;;;;;;;;;19.90;42.60;;;;;;5111851;28;19924;-43
2022/01/24 03:21:41;;;;;;;;;;;19.90;42.60;;;;;;5088384;28;19923;-43
2022/01/24 03:24:08;;;;;;;;;;;19.90;42.60;;;;;;5109969;28;19977;-43
2022/01/24 03:26:36;;;;;;;;;;;19.90;42.60;;;;;;5086784;28;20026;-44
2022/01/24 03:29:02;;;;;;;;;;;19.90;42.60;;;;;;5108483;28;20394;-42
2022/01/24 03:31:29;;;;;;;;;;;19.90;42.60;;;;;;5100558;28;19928;-43
2022/01/24 03:33:56;;;;;;;;;;;19.90;42.60;;;;;;5096740;28;20018;-42
2022/01/24 03:36:22;;;;;;;;;;;19.90;42.50;;;;;;5094079;28;19944;-47
2022/01/24 03:38:49;;;;;;;;;;;19.90;42.60;;;;;;5094220;28;19974;-44
2022/01/24 03:41:16;;;;;;;;;;;19.90;42.60;;;;;;5111465;28;20470;-45
2022/01/24 03:43:44;;;;;;;;;;;19.90;42.50;;;;;;5102725;28;20292;-45
2022/01/24 03:46:14;;;;;;;;;;;19.90;42.50;;;;;;5090286;28;19935;-43
2022/01/24 03:48:44;;;;;;;;;;;19.90;42.50;;;;;;5098180;28;19959;-42
2022/01/24 03:51:11;;;;;;;;;;;19.90;42.50;;;;;;5091808;28;19988;-44
2022/01/24 03:53:38;;;;;;;;;;;19.90;42.50;;;;;;5097900;28;19923;-45
2022/01/24 03:56:05;;;;;;;;;;;19.90;42.50;;;;;;5092239;28;19963;-42
2022/01/24 03:58:32;;;;;;;;;;;19.90;42.50;;;;;;5098530;28;19928;-42
2022/01/24 04:01:00;;;;;;;;;;;19.90;42.50;;;;;;5114866;28;19924;-43
2022/01/24 04:03:27;;;;;;;;;;;19.90;42.50;;;;;;5084883;28;20286;-45
2022/01/24 04:05:54;;;;;;;;;;;19.90;42.50;;;;;;5132197;27;19924;-45
2022/01/24 04:08:20;;;;;;;;;;;19.90;42.50;;;;;;5116449;28;19924;-43
2022/01/24 04:10:51;;;;;;;;;;;19.90;42.50;;;;;;5114163;28;19947;-44
2022/01/24 04:13:26;;;;;;;;;;;19.90;43.10;;;;;;5116875;28;19993;-44
2022/01/24 04:18:48;;;;;;;;;;;19.90;42.50;;;;;;5111559;28;19927;-44
2022/01/24 04:21:20;;;;;;;;;;;19.90;42.50;;;;;;5097636;28;19931;-46
2022/01/24 04:23:51;;;;;;;;;;;19.90;42.50;;;;;;5097114;28;19950;-43
2022/01/24 04:26:18;;;;;;;;;;;19.90;42.50;;;;;;5099571;28;19928;-45
2022/01/24 04:28:45;;;;;;;;;;;19.90;42.40;;;;;;5097227;28;19924;-45
2022/01/24 04:31:11;;;;;;;;;;;19.90;42.40;;;;;;5097744;28;19924;-44
2022/01/24 04:33:38;;;;;;;;;;;19.90;42.40;;;;;;5097688;28;19977;-42
2022/01/24 04:36:07;;;;;;;;;;;19.90;42.40;;;;;;5112715;28;20389;-43
2022/01/24 04:38:34;;;;;;;;;;;19.90;42.40;;;;;;5115328;28;19923;-45
2022/01/24 04:41:05;;;;;;;;;;;19.90;42.40;;;;;;5101141;28;19958;-46
2022/01/24 04:43:47;;;;;;;;;;;19.90;42.40;;;;;;5097898;28;19934;-45
2022/01/24 04:46:28;;;;;;;;;;;19.90;42.40;;;;;;5113423;28;19977;-45
2022/01/24 04:51:54;;;;;;;;;;;19.90;42.40;;;;;;5078091;28;20003;-43
2022/01/24 04:56:56;;;;;;;;;;;19.90;42.40;;;;;;5085810;28;19930;-43
2022/01/24 04:59:22;;;;;;;;;;;19.90;42.40;;;;;;5096631;28;19977;-47
2022/01/24 05:01:49;;;;;;;;;;;19.90;42.40;;;;;;5114691;28;19977;-47
2022/01/24 05:04:16;;;;;;;;;;;19.90;42.90;;;;;;5115659;28;19927;-43
2022/01/24 05:06:44;;;;;;;;;;;19.90;42.30;;;;;;5104867;28;19924;-45
2022/01/24 05:09:11;;;;;;;;;;;19.90;42.30;;;;;;5095981;28;19959;-46
2022/01/24 05:11:45;;;;;;;;;;;19.90;42.30;;;;;;5109844;28;19977;-44
2022/01/24 05:25:10;;;;;;;;;;;19.90;42.30;;;;;;5079033;28;19930;-43
2022/01/24 05:27:37;;;;;;;;;;;19.90;42.30;;;;;;5094979;28;19924;-44
2022/01/24 05:30:04;;;;;;;;;;;19.90;42.30;;;;;;5092378;28;20411;-44
2022/01/24 05:32:31;;;;;;;;;;;19.90;42.30;;;;;;5105394;28;19934;-47
2022/01/24 05:34:57;;;;;;;;;;;19.90;42.30;;;;;;5080561;28;19974;-44
2022/01/24 05:37:25;;;;;;;;;;;19.90;42.30;;;;;;5114768;28;20033;-43
2022/01/24 05:39:52;;;;;;;;;;;19.90;42.30;;;;;;5110101;28;20011;-46
2022/01/24 05:42:21;;;;;;;;;;;19.90;42.30;;;;;;5105556;28;19924;-44
2022/01/24 05:44:49;;;;;;;;;;;19.90;42.20;;;;;;5113497;28;19924;-45
2022/01/24 05:47:16;;;;;;;;;;;19.90;42.20;;;;;;5095573;28;20377;-47
2022/01/24 05:49:42;;;;;;;;;;;19.90;42.20;;;;;;5095163;28;20259;-43
2022/01/24 05:52:09;;;;;;;;;;;19.90;42.20;;;;;;5103849;28;19923;-45
2022/01/24 05:54:38;;;;;;;;;;;19.90;42.20;;;;;;5076474;28;20023;-47
2022/01/24 05:57:05;;;;;;;;;;;19.90;42.20;;;;;;5112193;28;19932;-46
2022/01/24 05:59:32;;;;;;;;;;;19.90;42.20;;;;;;5096308;28;19935;-46
2022/01/24 06:01:59;;;;;;;;;;;19.90;42.20;;;;;;5114706;28;20330;-46
2022/01/24 06:04:25;;;;;;;;;;;19.90;42.20;;;;;;5095514;28;19930;-43
2022/01/24 06:06:52;;;;;;;;;;;19.90;42.20;;;;;;5093762;28;20316;-44
2022/01/24 06:09:19;;;;;;;;;;;19.90;42.20;;;;;;5084454;28;20301;-45
2022/01/24 06:11:47;;;;;;;;;;;19.90;42.10;;;;;;5081200;28;19924;-49
2022/01/24 06:14:14;;;;;;;;;;;19.90;42.20;;;;;;5095577;28;19966;-47
2022/01/24 06:16:41;;;;;;;;;;;19.90;42.20;;;;;;5098183;28;19928;-48
2022/01/24 06:19:08;;;;;;;;;;;19.90;42.20;;;;;;5094878;28;19927;-48
2022/01/24 06:21:34;;;;;;;;;;;19.90;42.10;;;;;;5090508;28;20028;-43
2022/01/24 06:24:01;;;;;;;;;;;19.90;42.10;;;;;;5095474;28;20304;-43
2022/01/24 06:26:28;;;;;;;;;;;19.90;42.10;;;;;;5081716;28;19947;-48
2022/01/24 06:28:56;;;;;;;;;;;19.90;42.10;;;;;;5095696;28;19954;-47
2022/01/24 06:31:22;;;;;;;;;;;19.90;42.10;;;;;;5096795;28;19930;-43
2022/01/24 06:33:49;;;;;;;;;;;19.90;42.20;;;;;;5082213;28;19928;-46
2022/01/24 06:36:16;;;;;;;;;;;19.90;42.10;;;;;;5075662;28;20019;-43
2022/01/24 06:38:42;;;;;;;;;;;19.90;42.10;;;;;;5120084;28;19955;-43
2022/01/24 06:41:10;;;;;;;;;;;19.90;42.10;;;;;;5074777;28;19928;-46
2022/01/24 06:43:36;;;;;;;;;;;19.90;42.10;;;;;;5093289;28;19986;-45
2022/01/24 06:46:04;;;;;;;;;;;19.90;42.10;;;;;;5085749;28;19935;-43
2022/01/24 06:48:31;;;;;;;;;;;19.90;42.10;;;;;;5093549;28;19938;-43
2022/01/24 06:50:58;;;;;;;;;;;19.90;42.10;;;;;;5083902;28;19934;-43
2022/01/24 06:53:25;;;;;;;;;;;19.90;42.10;;;;;;5097699;28;19959;-45
2022/01/24 06:55:51;;;;;;;;;;;19.90;42.10;;;;;;5091855;28;19936;-47
2022/01/24 06:58:19;;;;;;;;;;;19.90;42.10;;;;;;5087989;28;20377;-43
2022/01/24 07:00:45;;;;;;;;;;;19.90;42.00;;;;;;5103491;28;19981;-43
2022/01/24 07:03:13;;;;;;;;;;;19.90;42.00;;;;;;5094089;28;19931;-43
2022/01/24 07:05:40;;;;;;;;;;;19.90;42.00;;;;;;5077837;28;19928;-44
2022/01/24 07:08:07;;;;;;;;;;;19.90;42.00;;;;;;5094708;28;19924;-46
2022/01/24 07:10:33;;;;;;;;;;;19.90;42.00;;;;;;5089251;28;19932;-44
2022/01/24 07:13:00;;;;;;;;;;;19.90;42.00;;;;;;5109224;28;19935;-43
2022/01/24 07:15:33;;;;;;;;;;;19.90;42.00;;;;;;5116585;28;19988;-43
2022/01/24 07:18:57;;;;;;;;;;;19.90;42.10;;;;;;5096629;28;19953;-45
2022/01/24 07:21:03;;;;;;;;;;;19.90;42.00;;;;;;5097663;28;19953;-45
2022/01/24 07:23:30;;;;;;;;;;;19.90;42.00;;;;;;5097797;28;19928;-43
2022/01/24 07:25:57;;;;;;;;;;;19.90;42.00;;;;;;5096457;28;19950;-42
2022/01/24 07:28:23;;;;;;;;;;;19.90;42.00;;;;;;5105144;28;19923;-43
2022/01/24 07:30:50;;;;;;;;;;;19.90;42.00;;;;;;5097728;28;19924;-42
2022/01/24 07:33:17;;;;;;;;;;;19.90;42.00;;;;;;5094538;28;19932;-45
2022/01/24 07:35:44;;;;;;;;;;;19.90;42.00;;;;;;5094497;28;19924;-42
2022/01/24 07:38:12;;;;;;;;;;;19.90;41.90;;;;;;5115266;28;19938;-44
2022/01/24 07:40:42;;;;;;;;;;;19.90;42.00;;;;;;5114826;28;19934;-43
2022/01/24 07:43:12;;;;;;;;;;;19.90;42.00;;;;;;5096414;28;19924;-43
2022/01/24 07:45:39;;;;;;;;;;;19.90;41.90;;;;;;5092844;28;19949;-47
2022/01/24 07:48:06;;;;;;;;;;;19.90;42.00;;;;;;5092392;28;19924;-50
2022/01/24 07:50:35;;;;;;;;;;;19.90;41.90;;;;;;5082796;28;19930;-46
2022/01/24 07:53:02;;;;;;;;;;;19.90;41.70;;;;;;5090772;28;19938;-45
2022/01/24 07:55:30;;;;;;;;;;;19.90;41.30;;;;;;5106807;28;19923;-54
2022/01/24 07:57:58;;;;;;;;;;;19.90;41.00;;;;;;5090520;28;20343;-48
2022/01/24 08:00:24;;;;;;;;;;;19.90;40.70;;;;;;5090662;28;20292;-45
2022/01/24 08:02:51;;;;;;;;;;;19.80;40.30;;;;;;5090353;28;19973;-48
2022/01/24 08:05:18;;;;;;;;;;;19.80;40.00;;;;;;5088392;28;19969;-46
2022/01/24 08:07:45;;;;;;;;;;;19.80;39.90;;;;;;5082290;28;20087;-49
2022/01/24 08:10:12;;;;;;;;;;;19.80;39.70;;;;;;5086029;28;19931;-42
2022/01/24 08:12:42;;;;;;;;;;;19.70;39.60;;;;;;5091048;28;20355;-45
2022/01/24 08:15:11;;;;;;;;;;;19.70;39.80;;;;;;5084584;28;19931;-43
2022/01/24 08:17:38;;;;;;;;;;;19.70;40.10;;;;;;5088364;28;19946;-44
2022/01/24 08:20:05;;;;;;;;;;;19.70;40.30;;;;;;5092734;28;20250;-46
2022/01/24 08:22:32;;;;;;;;;;;19.70;40.50;;;;;;5092401;28;19991;-46
2022/01/24 08:25:03;;;;;;;;;;;19.90;40.90;;;;;;5105905;28;19924;-42
2022/01/24 08:27:29;;;;;;;;;;;19.70;45.00;;;;;;5085701;28;20067;-45
2022/01/24 08:29:57;;;;;;;;;;;19.70;43.40;;;;;;5088043;28;20314;-45
2022/01/24 08:32:24;;;;;;;;;;;19.80;42.50;;;;;;5089007;28;19961;-48
2022/01/24 08:34:51;;;;;;;;;;;19.80;42.50;;;;;;5086066;28;19924;-43
2022/01/24 08:37:18;;;;;;;;;;;19.90;42.70;;;;;;5105849;28;19938;-43
2022/01/24 08:39:45;;;;;;;;;;;19.90;48.00;;;;;;5107360;28;20361;-45
2022/01/24 08:42:16;;;;;;;;;;;19.90;47.40;;;;;;5089415;28;20230;-46
2022/01/24 08:47:30;;;;;;;;;;;19.90;40.80;;;;;;5086895;28;19965;-44
2022/01/24 08:49:57;;;;;;;;;;;19.90;41.30;;;;;;5105066;28;19924;-48
2022/01/24 08:52:24;;;;;;;;;;;19.90;41.40;;;;;;5108352;28;20022;-43
2022/01/24 08:54:51;;;;;;;;;;;19.90;41.40;;;;;;5085284;28;20637;-45
2022/01/24 08:57:21;;;;;;;;;;;19.90;41.40;;;;;;5090217;28;20039;-45
2022/01/24 08:59:48;;;;;;;;;;;20.00;41.60;;;;;;5088833;28;19966;-43
2022/01/24 09:02:15;;;;;;;;;;;20.00;41.70;;;;;;5085425;28;19928;-47
2022/01/24 09:04:43;;;;;;;;;;;20.00;41.60;;;;;;5081916;28;20405;-46
2022/01/24 09:07:10;;;;;;;;;;;20.00;41.70;;;;;;5090115;28;20273;-45
2022/01/24 09:09:38;;;;;;;;;;;20.00;41.70;;;;;;5089172;28;20365;-48
2022/01/24 09:12:05;;;;;;;;;;;20.00;41.70;;;;;;5086099;28;19981;-46
2022/01/24 09:14:32;;;;;;;;;;;20.00;41.70;;;;;;5085528;28;19966;-45
2022/01/24 09:16:59;;;;;;;;;;;20.00;41.70;;;;;;5108003;28;19923;-48
2022/01/24 09:19:26;;;;;;;;;;;20.00;41.70;;;;;;5090690;28;19946;-51
2022/01/24 09:21:55;;;;;;;;;;;20.00;41.80;;;;;;5108600;28;19928;-46
2022/01/24 09:24:22;;;;;;;;;;;20.00;41.80;;;;;;5085165;28;20022;-46
2022/01/24 09:26:48;;;;;;;;;;;20.00;41.90;;;;;;5088285;28;19930;-43
2022/01/24 09:29:15;;;;;;;;;;;20.00;41.90;;;;;;5104058;28;19934;-45
2022/01/24 09:31:42;;;;;;;;;;;20.10;42.00;;;;;;5105234;28;19924;-50
2022/01/24 09:34:09;;;;;;;;;;;20.10;42.00;;;;;;5103818;28;19934;-43
2022/01/24 09:36:36;;;;;;;;;;;20.10;41.90;;;;;;5086971;28;20377;-42
2022/01/24 09:39:04;;;;;;;;;;;20.10;42.00;;;;;;5103593;28;20027;-44
2022/01/24 09:41:31;;;;;;;;;;;20.10;42.00;;;;;;5110833;27;19924;-47
2022/01/24 09:43:58;;;;;;;;;;;20.10;42.10;;;;;;5087121;28;20339;-46
2022/01/24 09:46:24;;;;;;;;;;;20.10;42.10;;;;;;5103892;28;19930;-46
2022/01/24 09:48:51;;;;;;;;;;;20.10;42.00;;;;;;5085113;28;19934;-44
2022/01/24 09:51:18;;;;;;;;;;;20.10;42.10;;;;;;5088463;28;20349;-44
2022/01/24 09:53:45;;;;;;;;;;;20.10;42.00;;;;;;5088662;28;20293;-42
2022/01/24 09:56:13;;;;;;;;;;;20.10;42.10;;;;;;5081794;28;20735;-47
2022/01/24 09:58:40;;;;;;;;;;;20.10;42.10;;;;;;5083321;28;20529;-47
2022/01/24 10:01:07;;;;;;;;;;;20.10;42.00;;;;;;5086615;28;19970;-48
2022/01/24 10:03:34;;;;;;;;;;;20.10;41.90;;;;;;5086588;28;19934;-46
2022/01/24 10:06:01;;;;;;;;;;;20.10;41.70;;;;;;5104584;28;20349;-52
2022/01/24 10:08:29;;;;;;;;;;;20.10;41.60;;;;;;5086599;28;19931;-44
2022/01/24 10:10:56;;;;;;;;;;;20.10;41.40;;;;;;5085345;28;20337;-52
2022/01/24 10:16:26;;;;;;;;;;;20.10;41.10;;;;;;5112479;28;19931;-46
2022/01/24 10:19:09;;;;;;;;;;;20.10;41.00;;;;;;5081772;28;19935;-51
2022/01/24 10:21:39;;;;;;;;;;;20.10;40.90;;;;;;5085954;28;19927;-46
2022/01/24 10:24:06;;;;;;;;;;;20.00;40.70;;;;;;5082882;28;19946;-45
2022/01/24 10:26:33;;;;;;;;;;;20.10;40.70;;;;;;5085567;28;19933;-49
2022/01/24 10:29:01;;;;;;;;;;;20.00;40.60;;;;;;5086429;28;19959;-52
2022/01/24 10:31:29;;;;;;;;;;;20.00;40.50;;;;;;5084746;28;20419;-46
2022/01/24 10:34:00;;;;;;;;;;;20.00;40.40;;;;;;5104428;28;20448;-46
2022/01/24 10:36:28;;;;;;;;;;;20.00;40.30;;;;;;5103381;28;19932;-46
2022/01/24 10:39:07;;;;;;;;;;;20.00;40.30;;;;;;5086030;28;20273;-50
2022/01/24 10:41:51;;;;;;;;;;;20.00;40.20;;;;;;5085088;28;19928;-49
2022/01/24 10:44:28;;;;;;;;;;;20.00;40.20;;;;;;5079967;28;20353;-46
2022/01/24 10:46:55;;;;;;;;;;;20.00;40.20;;;;;;5100941;28;19981;-47
2022/01/24 10:49:31;;;;;;;;;;;20.00;40.10;;;;;;5106612;28;19936;-48
2022/01/24 10:51:58;;;;;;;;;;;19.90;40.00;;;;;;5085620;28;19938;-52
2022/01/24 10:54:28;;;;;;;;;;;20.00;40.10;;;;;;5105824;27;19954;-48
2022/01/24 10:56:54;;;;;;;;;;;19.90;40.00;;;;;;5085066;28;19949;-47
2022/01/24 10:59:22;;;;;;;;;;;19.90;40.00;;;;;;5089375;28;20007;-48
2022/01/24 11:01:52;;;;;;;;;;;19.90;40.00;;;;;;5088733;28;19919;-51
2022/01/24 11:04:19;;;;;;;;;;;19.90;39.90;;;;;;5106139;27;19938;-48
2022/01/24 11:06:47;;;;;;;;;;;19.90;39.80;;;;;;5089740;28;19924;-52
2022/01/24 11:09:14;;;;;;;;;;;19.90;39.80;;;;;;5088181;28;20379;-50
2022/01/24 11:11:41;;;;;;;;;;;19.90;39.80;;;;;;5087149;28;19950;-49
2022/01/24 11:14:09;;;;;;;;;;;19.90;39.80;;;;;;5088329;28;19932;-48
2022/01/24 11:16:37;;;;;;;;;;;19.90;39.80;;;;;;5076964;28;19990;-51
2022/01/24 11:19:10;;;;;;;;;;;19.90;39.70;;;;;;5108346;28;19924;-50
2022/01/24 11:21:38;;;;;;;;;;;19.90;39.80;;;;;;5104556;28;20002;-49
2022/01/24 11:24:06;;;;;;;;;;;19.90;39.80;;;;;;5089253;28;19963;-50
2022/01/24 11:26:33;;;;;;;;;;;19.80;39.70;;;;;;5101687;28;20284;-48
2022/01/24 11:29:00;;;;;;;;;;;19.90;39.70;;;;;;5087380;28;20381;-48
2022/01/24 11:31:28;;;;;;;;;;;19.90;39.60;;;;;;5088846;28;19994;-53
2022/01/24 11:33:55;;;;;;;;;;;19.90;39.70;;;;;;5089844;28;19927;-50
2022/01/24 11:36:27;;;;;;;;;;;19.80;39.60;;;;;;5105418;28;19977;-47
2022/01/24 11:38:58;;;;;;;;;;;19.90;39.80;;;;;;5090249;28;20292;-48
2022/01/24 11:41:27;;;;;;;;;;;19.90;39.80;;;;;;5089466;28;19931;-51
2022/01/24 11:43:55;;;;;;;;;;;19.90;39.80;;;;;;5088217;28;20407;-45
2022/01/24 11:46:32;;;;;;;;;;;19.80;39.70;;;;;;5088469;28;20065;-45
2022/01/24 11:49:02;;;;;;;;;;;19.90;39.80;;;;;;5088940;28;19932;-48
2022/01/24 11:51:32;;;;;;;;;;;19.80;39.60;;;;;;5084438;28;19928;-45
2022/01/24 11:53:59;;;;;;;;;;;19.80;39.60;;;;;;5112820;27;19924;-46
2022/01/24 11:56:26;;;;;;;;;;;19.90;39.70;;;;;;5087940;28;20341;-52
2022/01/24 11:58:53;;;;;;;;;;;19.90;39.60;;;;;;5088492;28;19928;-47
2022/01/24 12:01:36;;;;;;;;;;;19.80;39.60;;;;;;5084040;28;19977;-49
2022/01/24 12:04:03;;;;;;;;;;;19.80;39.60;;;;;;5105243;28;19938;-47
2022/01/24 12:06:32;;;;;;;;;;;19.80;40.10;;;;;;5107354;28;20614;-49
2022/01/24 12:09:01;;;;;;;;;;;19.80;39.40;;;;;;5100025;28;20018;-50
2022/01/24 12:11:33;;;;;;;;;;;19.80;39.50;;;;;;5087797;28;19991;-46
2022/01/24 12:14:02;;;;;;;;;;;19.80;39.40;;;;;;5088427;28;20185;-51
2022/01/24 12:16:33;;;;;;;;;;;19.80;39.50;;;;;;5086593;28;20008;-57
2022/01/24 12:19:00;;;;;;;;;;;19.80;39.40;;;;;;5088243;28;19924;-47
2022/01/24 12:21:32;;;;;;;;;;;19.80;39.40;;;;;;5106258;28;20046;-45
2022/01/24 12:24:00;;;;;;;;;;;19.80;39.40;;;;;;5086375;28;19927;-47
2022/01/24 12:26:28;;;;;;;;;;;19.80;39.40;;;;;;5106107;27;20317;-48
2022/01/24 12:28:59;;;;;;;;;;;19.80;39.30;;;;;;5086627;28;20118;-47
2022/01/24 12:31:27;;;;;;;;;;;19.80;39.90;;;;;;5083968;28;19924;-52
2022/01/24 12:33:59;;;;;;;;;;;19.80;39.30;;;;;;5086616;28;20375;-48
2022/01/24 12:36:46;;;;;;;;;;;19.80;39.40;;;;;;5087519;28;19923;-47
2022/01/24 12:39:15;;;;;;;;;;;19.80;39.40;;;;;;5086999;28;19923;-53
2022/01/24 12:41:46;;;;;;;;;;;19.70;39.30;;;;;;5085025;28;19932;-51
2022/01/24 12:46:18;;;;;;;;;;;19.70;39.30;;;;;;5087093;28;19935;-46
2022/01/24 12:46:59;;;;;;;;;;;19.70;39.40;;;;;;5105627;28;19924;-48
2022/01/24 12:49:28;;;;;;;;;;;19.80;39.50;;;;;;5086285;28;20004;-53
2022/01/24 12:51:54;;;;;;;;;;;19.80;39.50;;;;;;5085184;28;19924;-45
2022/01/24 12:54:22;;;;;;;;;;;19.70;39.40;;;;;;5089130;28;19930;-50
2022/01/24 12:56:49;;;;;;;;;;;19.80;39.50;;;;;;5087587;28;19967;-50
2022/01/24 12:59:16;;;;;;;;;;;19.80;39.50;;;;;;5085767;28;20020;-52
2022/01/24 13:01:43;;;;;;;;;;;19.80;39.40;;;;;;5103578;28;20031;-50
2022/01/24 13:04:11;;;;;;;;;;;19.80;39.20;;;;;;5086174;28;20418;-51
2022/01/24 13:06:38;;;;;;;;;;;19.70;39.20;;;;;;5088697;28;19963;-45
2022/01/24 13:09:05;;;;;;;;;;;19.70;39.00;;;;;;5088451;28;20295;-52
2022/01/24 13:11:33;;;;;;;;;;;19.70;39.20;;;;;;5086509;28;19932;-50
2022/01/24 13:14:02;;;;;;;;;;;19.70;39.10;;;;;;5086753;28;20064;-49
2022/01/24 13:22:15;;;;;;;;;;;19.70;39.10;;;;;;5103342;28;20325;-49
2022/01/24 13:24:57;;;;;;;;;;;19.70;39.10;;;;;;5086200;28;19962;-50
2022/01/24 13:27:35;;;;;;;;;;;19.70;39.20;;;;;;5100875;28;19919;-51
2022/01/24 13:30:02;;;;;;;;;;;19.70;39.10;;;;;;5087931;28;19928;-49
2022/01/24 13:32:56;;;;;;;;;;;19.70;39.20;;;;;;5087845;28;19923;-49
2022/01/24 13:35:26;;;;;;;;;;;19.70;39.20;;;;;;5043986;28;20552;-47
2022/01/24 13:37:55;;;;;;;;;;;19.70;39.20;;;;;;5114693;27;19932;-45
2022/01/24 13:40:32;;;;;;;;;;;19.70;39.20;;;;;;5105739;28;20450;-51
2022/01/24 13:43:01;;;;;;;;;;;19.60;39.10;;;;;;5084644;28;20276;-51
2022/01/24 13:45:27;;;;;;;;;;;19.70;39.20;;;;;;5099307;28;20408;-51
2022/01/24 13:47:58;;;;;;;;;;;19.70;39.20;;;;;;5101123;28;20377;-52
2022/01/24 13:50:25;;;;;;;;;;;19.70;39.10;;;;;;5086388;28;19927;-49
2022/01/24 13:52:51;;;;;;;;;;;19.70;39.00;;;;;;5106134;28;20449;-48
2022/01/24 13:55:18;;;;;;;;;;;19.60;39.00;;;;;;5086919;28;19924;-46
2022/01/24 13:57:47;;;;;;;;;;;19.70;39.10;;;;;;5084241;28;20018;-54
2022/01/24 14:00:16;;;;;;;;;;;19.70;39.10;;;;;;5086577;28;20048;-46
2022/01/24 14:02:43;;;;;;;;;;;19.60;39.10;;;;;;5091039;28;20369;-47
2022/01/24 14:05:10;;;;;;;;;;;19.60;39.10;;;;;;5086876;28;19928;-48
2022/01/24 14:07:41;;;;;;;;;;;19.60;39.10;;;;;;5084540;28;19947;-50
2022/01/24 14:10:09;;;;;;;;;;;19.60;39.10;;;;;;5102888;28;19923;-48
2022/01/24 14:12:47;;;;;;;;;;;19.60;39.10;;;;;;5107027;28;19993;-47
2022/01/24 14:15:20;;;;;;;;;;;19.60;39.10;;;;;;5086905;28;19930;-45
2022/01/24 14:18:19;;;;;;;;;;;19.60;39.10;;;;;;5088624;28;20528;-46
2022/01/24 14:20:45;;;;;;;;;;;19.60;39.10;;;;;;5087463;28;19959;-48
2022/01/24 14:23:20;;;;;;;;;;;19.60;39.00;;;;;;5089682;28;19927;-46
2022/01/24 14:25:47;;;;;;;;;;;19.60;39.00;;;;;;5087285;28;19923;-49
2022/01/24 14:28:14;;;;;;;;;;;19.60;38.90;;;;;;5087809;28;20303;-48
2022/01/24 14:30:43;;;;;;;;;;;19.60;38.90;;;;;;5086664;28;20823;-47
2022/01/24 14:33:12;;;;;;;;;;;19.60;38.90;;;;;;5089410;28;20390;-44
2022/01/24 14:35:43;;;;;;;;;;;19.60;39.60;;;;;;5088710;28;20203;-45
2022/01/24 14:38:10;;;;;;;;;;;19.60;39.20;;;;;;5082753;28;20397;-44
2022/01/24 14:40:47;;;;;;;;;;;19.60;39.30;;;;;;5090860;27;20030;-43
2022/01/24 14:46:01;;;;;;;;;;;19.60;39.50;;;;;;5110956;27;19934;-43
2022/01/24 14:48:28;;;;;;;;;;;19.60;39.50;;;;;;5107816;27;19927;-46
2022/01/24 14:50:55;;;;;;;;;;;19.70;39.60;;;;;;5110973;27;19983;-44
2022/01/24 14:53:28;;;;;;;;;;;19.70;39.60;;;;;;5104757;27;19923;-43
2022/01/24 14:55:55;;;;;;;;;;;19.70;39.70;;;;;;5113235;27;19930;-44
2022/01/24 14:58:24;;;;;;;;;;;19.70;39.70;;;;;;5112598;27;19923;-44
2022/01/24 15:00:51;;;;;;;;;;;19.70;39.80;;;;;;5132052;27;19927;-44
2022/01/24 15:03:19;;;;;;;;;;;19.70;39.90;;;;;;5134428;27;19946;-52
2022/01/24 15:05:46;;;;;;;;;;;19.70;39.90;;;;;;5109757;27;19923;-42
2022/01/24 15:08:14;;;;;;;;;;;19.80;40.10;;;;;;5111281;27;19931;-43
2022/01/24 15:10:41;;;;;;;;;;;19.80;40.10;;;;;;5110436;27;19937;-45
2022/01/24 15:13:09;;;;;;;;;;;19.80;40.10;;;;;;5111762;27;20307;-43
2022/01/24 15:15:41;;;;;;;;;;;19.80;40.20;;;;;;5130759;27;20487;-44
2022/01/24 15:26:22;;;;;;;;;;;19.80;40.30;;;;;;5101617;27;19930;-47
2022/01/24 15:28:49;;;;;;;;;;;19.80;40.30;;;;;;5112573;27;19923;-42
2022/01/24 15:31:16;;;;;;;;;;;19.90;40.50;;;;;;5113690;27;19992;-48
2022/01/24 15:33:43;;;;;;;;;;;19.90;40.40;;;;;;5113792;27;19931;-46
2022/01/24 15:36:11;;;;;;;;;;;19.80;40.40;;;;;;5108424;27;20003;-45
2022/01/24 15:38:39;;;;;;;;;;;19.90;40.50;;;;;;5111827;27;19927;-43
2022/01/24 15:41:06;;;;;;;;;;;19.90;40.50;;;;;;5111404;27;19927;-48
2022/01/24 15:43:54;;;;;;;;;;;19.90;40.60;;;;;;5110879;27;19927;-48
2022/01/24 15:49:02;;;;;;;;;;;19.90;40.60;;;;;;5124810;27;20610;-47
2022/01/24 15:51:30;;;;;;;;;;;19.90;40.60;;;;;;5112715;27;20004;-45